createdAt,value
2023-04-02T00:44:10.308Z,10.04
2023-04-02T00:49:19.760Z,9.91
2023-04-02T00:54:31.920Z,11.06
2023-04-02T00:59:44.432Z,10.58
2023-04-02T01:04:57.942Z,11.12
2023-04-02T01:10:23.721Z,10.77
2023-04-02T01:15:29.202Z,10.83
2023-04-02T01:21:07.574Z,11.58
2023-04-02T01:26:15.331Z,10.21
2023-04-02T01:31:12.619Z,11.10
2023-04-02T01:36:35.756Z,10.78
2023-04-02T01:41:50.594Z,11.21
2023-04-02T01:46:56.434Z,11.34
2023-04-02T01:51:56.858Z,11.59
2023-04-02T01:56:55.022Z,10.70
2023-04-02T02:02:05.239Z,11.56
2023-04-02T02:07:04.321Z,11.05
2023-04-02T02:12:00.420Z,11.52
2023-04-02T02:16:58.132Z,9.98
2023-04-02T02:21:55.907Z,11.50
2023-04-02T02:27:06.201Z,11.51
2023-04-02T02:32:05.589Z,11.46
2023-04-02T02:37:08.098Z,11.35
2023-04-02T02:42:09.944Z,11.16
2023-04-02T02:47:13.577Z,10.83
2023-04-02T02:52:20.338Z,9.72
2023-04-02T02:57:36.474Z,9.65
2023-04-02T03:02:43.749Z,10.27
2023-04-02T03:07:41.964Z,9.95
2023-04-02T03:12:51.711Z,10.04
2023-04-02T03:18:02.249Z,10.84
2023-04-02T03:23:07.483Z,10.80
2023-04-02T03:28:06.371Z,9.79
2023-04-02T03:33:05.411Z,10.64
2023-04-02T03:38:06.248Z,11.45
2023-04-02T03:43:07.265Z,11.48
2023-04-02T03:48:09.564Z,10.02
2023-04-02T03:53:04.275Z,10.85
2023-04-02T03:58:08.212Z,10.27
2023-04-02T04:03:16.265Z,10.18
2023-04-02T04:08:17.309Z,10.70
2023-04-02T04:13:16.627Z,10.92
2023-04-02T04:18:29.606Z,10.17
2023-04-02T04:23:30.537Z,11.18
2023-04-02T04:28:33.171Z,10.93
2023-04-02T04:33:43.694Z,11.47
2023-04-02T04:39:17.123Z,10.41
2023-04-02T04:44:24.355Z,11.15
2023-04-02T04:49:31.722Z,10.59
2023-04-02T04:54:28.349Z,10.59
2023-04-02T04:59:31.020Z,10.09
2023-04-02T05:04:37.843Z,9.68
2023-04-02T05:09:44.891Z,10.52
2023-04-02T05:14:50.942Z,10.05
2023-04-02T05:19:59.022Z,9.57
2023-04-02T05:25:26.218Z,9.44
2023-04-02T05:30:46.839Z,10.57
2023-04-02T05:36:28.135Z,10.96
2023-04-02T05:41:40.311Z,9.31
2023-04-02T05:47:13.820Z,10.50
2023-04-02T05:52:29.694Z,11.05
2023-04-02T05:57:44.575Z,9.84
2023-04-02T06:22:18.985Z,10.86
2023-04-02T06:27:35.814Z,10.89
2023-04-02T06:33:10.117Z,10.52
2023-04-02T06:38:20.629Z,11.37
2023-04-02T06:43:33.783Z,10.31
2023-04-02T06:48:51.576Z,11.49
2023-04-02T06:54:05.663Z,11.27
2023-04-02T06:59:09.793Z,11.48
2023-04-02T07:04:20.707Z,11.94
2023-04-02T07:09:43.722Z,12.11
2023-04-02T07:14:42.239Z,11.18
2023-04-02T07:20:02.866Z,12.10
2023-04-02T07:25:45.507Z,11.06
2023-04-02T07:36:54.743Z,12.93
2023-04-02T07:42:16.218Z,11.99
2023-04-02T07:47:18.965Z,12.37
2023-04-02T08:04:02.254Z,13.45
2023-04-02T08:09:32.067Z,13.00
2023-04-02T08:14:50.695Z,14.58
2023-04-02T08:20:29.681Z,14.15
2023-04-02T08:25:31.786Z,14.45
2023-04-02T08:30:45.082Z,14.76
2023-04-02T08:35:45.090Z,14.79
2023-04-02T08:46:14.842Z,14.23
2023-04-02T08:57:33.232Z,14.78
2023-04-02T09:02:39.829Z,15.73
2023-04-02T09:07:34.856Z,15.04
2023-04-02T09:12:33.425Z,16.07
2023-04-02T09:17:50.546Z,15.74
2023-04-02T09:22:55.514Z,15.72
2023-04-02T09:28:27.833Z,16.12
2023-04-02T09:33:43.285Z,15.45
2023-04-02T09:39:19.882Z,16.42
2023-04-02T09:44:30.680Z,16.41
2023-04-02T09:50:05.311Z,16.41
2023-04-02T09:55:25.826Z,16.46
2023-04-02T10:06:18.434Z,16.58
2023-04-02T10:11:25.399Z,16.59
2023-04-02T10:16:27.837Z,16.77
2023-04-02T10:21:30.724Z,15.66
2023-04-02T10:26:46.997Z,15.90
2023-04-02T10:32:00.521Z,16.36
2023-04-02T10:37:24.801Z,16.62
2023-04-02T10:42:27.977Z,17.05
2023-04-02T10:47:41.299Z,17.07
2023-04-02T10:52:43.019Z,17.03
2023-04-02T10:57:42.381Z,16.88
2023-04-02T11:02:45.520Z,18.05
2023-04-02T11:07:54.179Z,18.27
2023-04-02T11:12:58.008Z,17.91
2023-04-02T11:17:55.172Z,18.86
2023-04-02T11:23:16.269Z,19.32
2023-04-02T11:28:34.160Z,20.06
2023-04-02T11:34:21.326Z,20.51
2023-04-02T11:39:58.462Z,22.44
2023-04-02T11:45:30.311Z,23.91
2023-04-02T11:51:18.856Z,23.39
2023-04-02T11:56:49.401Z,24.36
2023-04-02T12:02:38.183Z,23.23
2023-04-02T12:08:13.695Z,22.41
2023-04-02T12:14:42.430Z,21.54
2023-04-02T12:19:56.280Z,22.32
2023-04-02T12:26:00.015Z,22.80
2023-04-02T12:31:30.925Z,22.51
2023-04-02T12:36:42.167Z,20.55
2023-04-02T12:42:03.149Z,20.62
2023-04-02T12:47:17.726Z,20.50
2023-04-02T12:52:34.903Z,20.77
2023-04-02T12:57:46.355Z,22.26
2023-04-02T13:27:19.605Z,19.40
2023-04-02T13:32:56.831Z,20.45
2023-04-02T13:51:06.339Z,24.49
2023-04-02T13:57:08.846Z,25.92
2023-04-02T14:02:51.562Z,27.05
2023-04-02T14:08:18.778Z,26.06
2023-04-02T14:13:54.095Z,25.99
2023-04-02T14:19:14.052Z,24.79
2023-04-02T14:24:51.772Z,23.53
2023-04-02T14:30:11.683Z,21.97
2023-04-02T14:35:46.606Z,20.85
2023-04-02T14:40:52.637Z,20.46
2023-04-02T14:46:18.410Z,20.52
2023-04-02T14:51:36.522Z,21.17
2023-04-02T14:56:40.885Z,21.04
2023-04-02T15:01:39.620Z,20.91
2023-04-02T15:06:41.593Z,20.78
2023-04-02T15:11:39.381Z,19.32
2023-04-02T15:16:39.081Z,20.02
2023-04-02T15:22:30.957Z,19.96
2023-04-02T15:27:51.450Z,18.94
2023-04-02T15:32:50.275Z,19.21
2023-04-02T15:38:50.776Z,17.46
2023-04-02T15:43:58.514Z,18.36
2023-04-02T15:49:22.810Z,17.30
2023-04-02T15:54:34.488Z,18.44
2023-04-02T16:00:07.577Z,18.62
2023-04-02T16:05:13.898Z,18.51
2023-04-02T16:10:41.133Z,17.04
2023-04-02T16:15:42.703Z,18.23
2023-04-02T16:20:42.008Z,17.76
2023-04-02T16:25:57.987Z,17.12
2023-04-02T16:31:07.666Z,17.64
2023-04-02T16:54:29.435Z,15.66
2023-04-02T16:59:35.754Z,15.36
2023-04-02T17:04:58.756Z,16.17
2023-04-02T17:10:04.225Z,15.87
2023-04-02T17:15:24.870Z,15.57
2023-04-02T17:20:36.988Z,14.87
2023-04-02T17:25:48.549Z,14.39
2023-04-02T17:30:50.374Z,14.69
2023-04-02T17:36:22.197Z,14.64
2023-04-02T17:47:11.869Z,15.44
2023-04-02T17:52:19.958Z,15.48
2023-04-02T17:57:53.320Z,15.62
2023-04-02T18:03:28.003Z,14.37
2023-04-02T18:08:40.214Z,15.26
2023-04-02T18:13:45.399Z,14.56
2023-04-02T18:19:06.220Z,14.28
2023-04-02T18:24:24.096Z,14.81
2023-04-02T18:29:35.186Z,14.12
2023-04-02T18:34:45.435Z,13.96
2023-04-02T18:39:57.146Z,13.28
2023-04-02T18:45:18.078Z,13.57
2023-04-02T18:50:54.338Z,13.09
2023-04-02T18:56:12.056Z,13.18
2023-04-02T19:01:09.272Z,13.13
2023-04-02T19:06:23.622Z,12.80
2023-04-02T19:11:28.917Z,12.94
2023-04-02T19:17:14.368Z,11.96
2023-04-02T19:22:33.761Z,12.44
2023-04-02T19:27:39.652Z,12.97
2023-04-02T19:32:47.188Z,12.39
2023-04-02T19:38:06.822Z,13.03
2023-04-02T19:43:11.666Z,13.19
2023-04-02T19:48:28.707Z,11.90
2023-04-02T19:53:33.188Z,12.07
2023-04-02T19:58:40.216Z,11.26
2023-04-02T20:03:35.405Z,11.97
2023-04-02T20:08:43.798Z,11.03
2023-04-02T20:13:41.596Z,12.37
2023-04-02T20:18:38.536Z,11.68
2023-04-02T20:23:36.430Z,12.10
2023-04-02T20:28:38.031Z,11.46
2023-04-02T20:33:40.195Z,12.15
2023-04-02T20:38:36.565Z,10.92
2023-04-02T20:43:31.237Z,11.04
2023-04-02T20:48:39.729Z,11.23
2023-04-02T20:53:38.004Z,12.74
2023-04-02T20:58:36.901Z,12.47
2023-04-02T21:03:32.325Z,12.96
2023-04-02T21:08:26.723Z,11.88
2023-04-02T21:13:25.826Z,11.89
2023-04-02T21:18:19.321Z,11.58
2023-04-02T21:23:13.618Z,12.50
2023-04-02T21:28:07.639Z,11.92
2023-04-02T21:33:03.880Z,12.29
2023-04-02T21:37:57.532Z,12.03
2023-04-02T21:42:52.512Z,12.66
2023-04-02T21:47:47.911Z,12.23
2023-04-02T21:52:43.006Z,12.54
2023-04-02T21:57:37.170Z,12.65
2023-04-02T22:02:31.094Z,12.42
2023-04-02T22:07:24.838Z,12.64
2023-04-02T22:12:22.438Z,12.65
2023-04-02T22:17:24.453Z,12.02
2023-04-02T22:22:18.039Z,11.89
2023-04-02T22:27:12.730Z,11.89
2023-04-02T22:32:11.894Z,12.23
2023-04-02T22:37:37.691Z,12.67
2023-04-02T22:42:31.370Z,11.39
2023-04-02T22:47:26.405Z,11.25
2023-04-02T22:52:19.831Z,11.91
2023-04-02T22:57:16.138Z,11.16
2023-04-02T23:02:10.766Z,12.18
2023-04-02T23:07:08.466Z,11.20
2023-04-02T23:12:03.233Z,12.56
2023-04-02T23:16:56.922Z,11.30
2023-04-02T23:21:50.610Z,11.33
2023-04-02T23:26:45.468Z,10.86
2023-04-02T23:31:39.375Z,12.39
2023-04-02T23:36:35.713Z,10.95
2023-04-02T23:41:31.030Z,11.88
2023-04-02T23:46:27.045Z,11.78
2023-04-02T23:51:22.942Z,11.86
2023-04-02T23:56:16.436Z,11.32
